createdAt,value
2023-05-09T00:00:55.289Z,101569.84
2023-05-09T00:03:23.552Z,101569.13
2023-05-09T00:05:52.948Z,101564.47
2023-05-09T00:08:22.311Z,101567.69
2023-05-09T00:10:51.555Z,101562.31
2023-05-09T00:13:20.571Z,101562.31
2023-05-09T00:15:49.444Z,101550.13
2023-05-09T00:18:18.655Z,101542.06
2023-05-09T00:20:47.670Z,101550.13
2023-05-09T00:23:16.434Z,101544.75
2023-05-09T00:25:45.693Z,101547.25
2023-05-09T00:28:14.914Z,101536.53
2023-05-09T00:30:44.379Z,101536.53
2023-05-09T00:33:13.632Z,101532.38
2023-05-09T00:35:42.575Z,101539.72
2023-05-09T00:38:11.116Z,101539.03
2023-05-09T00:40:39.990Z,101536.34
2023-05-09T00:43:08.926Z,101536.16
2023-05-09T00:45:37.896Z,101526.13
2023-05-09T00:48:06.946Z,101525.41
2023-05-09T00:50:35.707Z,101530.78
2023-05-09T00:53:04.790Z,101521.28
2023-05-09T00:55:32.966Z,101523.94
2023-05-09T00:58:01.945Z,101517.91
2023-05-09T01:00:30.208Z,101517.19
2023-05-09T01:02:59.136Z,101521.09
2023-05-09T01:05:28.151Z,101515.72
2023-05-09T01:07:57.255Z,101508.94
2023-05-09T01:10:25.525Z,101505.00
2023-05-09T01:12:54.352Z,101503.56
2023-05-09T01:15:22.966Z,101500.88
2023-05-09T01:17:50.989Z,101491.38
2023-05-09T01:20:19.232Z,101489.97
2023-05-09T01:22:48.085Z,101489.97
2023-05-09T01:25:17.217Z,101492.66
2023-05-09T01:27:45.183Z,101486.03
2023-05-09T01:30:14.213Z,101488.50
2023-05-09T01:32:43.077Z,101487.06
2023-05-09T01:35:12.118Z,101479.56
2023-05-09T01:37:41.553Z,101485.66
2023-05-09T01:40:10.886Z,101485.66
2023-05-09T01:42:39.236Z,101478.13
2023-05-09T01:45:07.714Z,101478.84
2023-05-09T01:47:35.881Z,101461.28
2023-05-09T01:50:04.427Z,101457.19
2023-05-09T01:52:32.659Z,101453.78
2023-05-09T01:55:01.433Z,101455.25
2023-05-09T01:57:30.394Z,101455.75
2023-05-09T01:59:58.994Z,101448.41
2023-05-09T02:02:27.658Z,101436.94
2023-05-09T02:04:56.724Z,101442.31
2023-05-09T02:07:25.260Z,101436.22
2023-05-09T02:09:56.218Z,101442.84
2023-05-09T02:12:25.508Z,101439.44
2023-05-09T02:14:54.033Z,101439.44
2023-05-09T02:17:23.170Z,101438.75
2023-05-09T02:19:52.242Z,101432.66
2023-05-09T02:22:21.120Z,101436.56
2023-05-09T02:24:49.588Z,101435.16
2023-05-09T02:27:18.815Z,101435.16
2023-05-09T02:29:47.622Z,101428.34
2023-05-09T02:32:16.513Z,101421.56
2023-05-09T02:34:45.306Z,101420.09
2023-05-09T02:37:14.496Z,101425.47
2023-05-09T02:39:43.837Z,101417.97
2023-05-09T02:42:13.139Z,101413.34
2023-05-09T02:44:41.465Z,101415.81
2023-05-09T02:47:10.905Z,101417.25
2023-05-09T02:49:39.874Z,101421.38
2023-05-09T02:52:08.663Z,101421.19
2023-05-09T02:54:36.802Z,101420.44
2023-05-09T02:57:06.155Z,101413.63
2023-05-09T02:59:35.484Z,101412.97
2023-05-09T03:02:04.094Z,101404.69
2023-05-09T03:04:33.208Z,101410.78
2023-05-09T03:07:02.292Z,101408.81
2023-05-09T03:09:33.571Z,101415.44
2023-05-09T03:12:02.582Z,101412.75
2023-05-09T03:14:31.424Z,101413.97
2023-05-09T03:17:00.450Z,101407.91
2023-05-09T03:19:34.859Z,101407.19
2023-05-09T03:22:02.520Z,101400.38
2023-05-09T03:24:34.250Z,101395.03
2023-05-09T03:27:03.892Z,101389.66
2023-05-09T03:29:32.887Z,101393.56
2023-05-09T03:32:01.598Z,101393.56
2023-05-09T03:34:29.975Z,101384.28
2023-05-09T03:36:59.637Z,101377.47
2023-05-09T03:39:29.919Z,101372.66
2023-05-09T03:41:58.512Z,101365.34
2023-05-09T03:44:27.285Z,101375.34
2023-05-09T03:46:54.848Z,101358.53
2023-05-09T03:49:22.693Z,101362.47
2023-05-09T03:51:53.210Z,101362.47
2023-05-09T03:54:22.652Z,101355.63
2023-05-09T03:56:52.082Z,101345.63
2023-05-09T03:59:21.712Z,101335.47
2023-05-09T04:01:52.712Z,101334.16
2023-05-09T04:04:26.705Z,101334.16
2023-05-09T04:06:57.510Z,101332.78
2023-05-09T04:09:26.499Z,101327.94
2023-05-09T04:11:56.313Z,101338.13
2023-05-09T04:14:26.122Z,101342.78
2023-05-09T04:16:55.912Z,101338.13
2023-05-09T04:19:24.355Z,101342.78
2023-05-09T04:21:53.046Z,101340.81
2023-05-09T04:24:21.385Z,101340.09
2023-05-09T04:26:50.665Z,101343.50
2023-05-09T04:29:22.871Z,101336.69
2023-05-09T04:31:54.306Z,101332.78
2023-05-09T04:34:25.736Z,101327.41
2023-05-09T04:36:54.608Z,101338.13
2023-05-09T04:39:23.518Z,101319.34
2023-05-09T04:42:01.596Z,101323.44
2023-05-09T04:44:30.138Z,101318.06
2023-05-09T04:47:01.050Z,101320.97
2023-05-09T04:49:29.969Z,101323.81
2023-05-09T04:51:58.449Z,101317.38
2023-05-09T04:54:28.925Z,101322.75
2023-05-09T04:57:09.803Z,101320.28
2023-05-09T04:59:47.897Z,101312.41
2023-05-09T05:02:16.786Z,101311.16
2023-05-09T05:04:46.024Z,101304.53
2023-05-09T05:07:15.977Z,101296.66
2023-05-09T05:09:46.163Z,101295.59
2023-05-09T05:12:15.008Z,101294.53
2023-05-09T05:14:44.403Z,101293.50
2023-05-09T05:17:17.969Z,101293.66
2023-05-09T05:19:47.399Z,101288.66
2023-05-09T05:22:16.858Z,101291.69
2023-05-09T05:24:46.853Z,101291.34
2023-05-09T05:27:16.231Z,101281.66
2023-05-09T05:29:44.909Z,101282.03
2023-05-09T05:32:14.908Z,101280.97
2023-05-09T05:34:44.074Z,101275.97
2023-05-09T05:37:11.967Z,101269.50
2023-05-09T05:39:43.995Z,101266.28
2023-05-09T05:42:13.921Z,101264.47
2023-05-09T05:44:42.584Z,101261.63
2023-05-09T05:47:11.170Z,101257.00
2023-05-09T05:49:40.113Z,101251.06
2023-05-09T05:52:09.894Z,101247.13
2023-05-09T05:54:39.184Z,101254.09
2023-05-09T05:57:08.899Z,101243.72
2023-05-09T05:59:38.276Z,101249.44
2023-05-09T06:02:08.038Z,101249.78
2023-05-09T06:04:36.966Z,101239.41
2023-05-09T06:07:05.938Z,101249.09
2023-05-09T06:09:34.981Z,101239.94
2023-05-09T06:12:03.502Z,101236.16
2023-05-09T06:14:32.348Z,101235.59
2023-05-09T06:17:01.354Z,101236.53
2023-05-09T06:19:30.698Z,101235.44
2023-05-09T06:21:59.209Z,101223.75
2023-05-09T06:24:35.929Z,101217.50
2023-05-09T06:27:05.572Z,101223.53
2023-05-09T06:29:33.473Z,101210.06
2023-05-09T06:32:01.744Z,101216.66
2023-05-09T06:34:30.975Z,101213.09
2023-05-09T06:37:00.265Z,101215.56
2023-05-09T06:39:29.018Z,101209.09
2023-05-09T06:41:57.863Z,101205.88
2023-05-09T06:44:32.254Z,101205.88
2023-05-09T06:47:01.106Z,101195.13
2023-05-09T06:49:30.517Z,101200.31
2023-05-09T06:51:59.467Z,101189.41
2023-05-09T06:54:28.848Z,101190.63
2023-05-09T06:56:58.226Z,101183.69
2023-05-09T06:59:27.734Z,101179.38
2023-05-09T07:01:56.881Z,101177.25
2023-05-09T07:04:25.229Z,101174.97
2023-05-09T07:06:54.567Z,101169.75
2023-05-09T07:09:23.380Z,101169.75
2023-05-09T07:11:52.162Z,101168.28
2023-05-09T07:14:21.383Z,101168.28
2023-05-09T07:16:50.714Z,101162.91
2023-05-09T07:19:19.582Z,101156.16
2023-05-09T07:21:48.982Z,101157.53
2023-05-09T07:24:17.817Z,101155.03
2023-05-09T07:26:47.078Z,101153.94
2023-05-09T07:29:16.409Z,101148.56
2023-05-09T07:31:45.193Z,101150.00
2023-05-09T07:34:14.083Z,101145.31
2023-05-09T07:36:43.331Z,101136.00
2023-05-09T07:39:12.939Z,101135.28
2023-05-09T07:41:42.464Z,101132.78
2023-05-09T07:44:11.676Z,101134.91
2023-05-09T07:46:40.438Z,101138.47
2023-05-09T07:49:09.326Z,101131.81
2023-05-09T07:51:38.584Z,101128.78
2023-05-09T07:54:07.357Z,101127.66
2023-05-09T07:56:36.576Z,101129.81
2023-05-09T07:59:05.982Z,101124.44
2023-05-09T08:01:34.815Z,101120.47
2023-05-09T08:04:04.087Z,101110.78
2023-05-09T08:06:33.579Z,101105.41
2023-05-09T08:09:02.513Z,101112.00
2023-05-09T08:11:31.769Z,101103.66
2023-05-09T08:14:00.992Z,101109.81
2023-05-09T08:16:29.916Z,101100.69
2023-05-09T08:18:58.504Z,101105.19
2023-05-09T08:21:26.766Z,101098.75
2023-05-09T08:23:55.784Z,101106.31
2023-05-09T08:26:24.461Z,101097.75
2023-05-09T08:28:53.277Z,101092.03
2023-05-09T08:31:22.567Z,101087.56
2023-05-09T08:33:51.336Z,101089.94
2023-05-09T08:36:20.214Z,101081.69
2023-05-09T08:38:49.482Z,101094.97
2023-05-09T08:41:18.487Z,101080.28
2023-05-09T08:43:47.206Z,101086.22
2023-05-09T08:46:16.490Z,101085.66
2023-05-09T08:48:45.954Z,101080.28
2023-05-09T08:51:15.289Z,101079.56
2023-05-09T08:53:44.662Z,101075.97
2023-05-09T08:56:14.113Z,101077.09
2023-05-09T08:58:42.914Z,101071.72
2023-05-09T09:01:12.205Z,101072.94
2023-05-09T09:03:41.610Z,101074.41
2023-05-09T09:06:10.266Z,101067.75
2023-05-09T09:08:38.452Z,101069.91
2023-05-09T09:11:07.694Z,101066.69
2023-05-09T09:13:37.139Z,101070.09
2023-05-09T09:16:06.576Z,101069.72
2023-05-09T09:18:35.512Z,101067.34
2023-05-09T09:21:04.175Z,101067.66
2023-05-09T09:23:33.100Z,101056.53
2023-05-09T09:26:02.653Z,101060.13
2023-05-09T09:28:31.351Z,101057.59
2023-05-09T09:31:00.016Z,101052.94
2023-05-09T09:33:29.086Z,101049.69
2023-05-09T09:35:57.939Z,101045.75
2023-05-09T09:38:27.287Z,101054.31
2023-05-09T09:40:56.448Z,101048.47
2023-05-09T09:43:24.792Z,101042.34
2023-05-09T09:45:53.836Z,101050.34
2023-05-09T09:48:22.459Z,101046.19
2023-05-09T09:50:50.406Z,101045.41
2023-05-09T09:53:20.308Z,101039.63
2023-05-09T09:55:49.021Z,101043.19
2023-05-09T09:58:18.316Z,101042.06
2023-05-09T10:00:47.692Z,101038.13
2023-05-09T10:03:17.042Z,101040.25
2023-05-09T10:05:45.354Z,101037.41
2023-05-09T10:08:14.196Z,101032.97
2023-05-09T10:10:42.714Z,101037.34
2023-05-09T10:13:12.608Z,101028.94
2023-05-09T10:15:53.102Z,101034.31
2023-05-09T10:18:23.626Z,101034.31
2023-05-09T10:20:52.645Z,101032.72
2023-05-09T10:23:21.804Z,101027.16
2023-05-09T10:25:50.132Z,101028.28
2023-05-09T10:28:19.332Z,101025.97
2023-05-09T10:30:48.146Z,101026.22
2023-05-09T10:33:17.077Z,101026.59
2023-05-09T10:35:46.556Z,101018.75
2023-05-09T10:38:15.561Z,101012.34
2023-05-09T10:40:44.886Z,101005.91
2023-05-09T10:43:13.959Z,101004.31
2023-05-09T10:45:42.699Z,101004.00
2023-05-09T10:48:11.593Z,101003.50
2023-05-09T10:50:40.822Z,101007.13
2023-05-09T10:53:09.731Z,101004.09
2023-05-09T10:55:38.719Z,100997.16
2023-05-09T10:58:07.829Z,100994.28
2023-05-09T11:00:36.377Z,100988.22
2023-05-09T11:03:05.040Z,100986.81
2023-05-09T11:05:33.913Z,100994.13
2023-05-09T11:08:03.138Z,100988.59
2023-05-09T11:10:32.490Z,100981.94
2023-05-09T11:13:02.793Z,100990.00
2023-05-09T11:15:33.000Z,100980.72
2023-05-09T11:18:02.403Z,100972.66
2023-05-09T11:20:31.501Z,100979.59
2023-05-09T11:23:00.198Z,100978.16
2023-05-09T11:25:29.175Z,100967.28
2023-05-09T11:27:58.100Z,100963.84
2023-05-09T11:30:26.697Z,100967.13
2023-05-09T11:32:55.564Z,100960.44
2023-05-09T11:35:24.902Z,100948.47
2023-05-09T11:37:54.294Z,100944.50
2023-05-09T11:40:23.699Z,100935.19
2023-05-09T11:42:53.030Z,100940.16
2023-05-09T11:45:23.233Z,100932.09
2023-05-09T11:47:52.079Z,100936.25
2023-05-09T11:50:20.322Z,100933.00
2023-05-09T11:52:49.365Z,100926.50
2023-05-09T11:55:18.314Z,100927.94
2023-05-09T11:57:47.851Z,100922.72
2023-05-09T12:00:16.584Z,100925.41
2023-05-09T12:02:45.890Z,100919.88
2023-05-09T12:05:15.598Z,100913.06
2023-05-09T12:07:45.347Z,100917.56
2023-05-09T12:10:14.001Z,100913.47
2023-05-09T12:12:42.224Z,100907.22
2023-05-09T12:15:11.018Z,100917.63
2023-05-09T12:17:40.419Z,100910.69
2023-05-09T12:20:09.634Z,100914.28
2023-05-09T12:22:38.863Z,100907.34
2023-05-09T12:25:07.733Z,100903.78
2023-05-09T12:27:37.077Z,100897.69
2023-05-09T12:30:06.523Z,100898.41
2023-05-09T12:32:37.395Z,100896.47
2023-05-09T12:35:06.797Z,100897.69
2023-05-09T12:37:35.517Z,100889.78
2023-05-09T12:40:04.107Z,100892.47
2023-05-09T12:42:33.895Z,100881.91
2023-05-09T12:45:02.786Z,100880.63
2023-05-09T12:47:31.494Z,100879.38
2023-05-09T12:50:00.927Z,100872.75
2023-05-09T12:52:30.099Z,100871.47
2023-05-09T12:54:58.246Z,100872.91
2023-05-09T12:57:28.001Z,100868.94
2023-05-09T12:59:58.788Z,100866.41
2023-05-09T13:02:28.023Z,100865.03
2023-05-09T13:04:57.230Z,100862.34
2023-05-09T13:07:26.584Z,100859.31
2023-05-09T13:09:55.835Z,100864.38
2023-05-09T13:12:25.091Z,100857.41
2023-05-09T13:14:54.039Z,100851.84
2023-05-09T13:17:22.853Z,100854.38
2023-05-09T13:19:52.150Z,100851.56
2023-05-09T13:22:20.894Z,100841.50
2023-05-09T13:24:49.966Z,100842.06
2023-05-09T13:27:18.355Z,100836.34
2023-05-09T13:29:46.552Z,100833.91
2023-05-09T13:32:15.815Z,100831.63
2023-05-09T13:34:45.241Z,100828.41
2023-05-09T13:37:14.302Z,100833.50
2023-05-09T13:39:42.997Z,100826.34
2023-05-09T13:42:11.779Z,100826.00
2023-05-09T13:44:41.098Z,100825.84
2023-05-09T13:47:10.200Z,100820.63
2023-05-09T13:49:39.006Z,100812.75
2023-05-09T13:52:08.255Z,100818.81
2023-05-09T13:54:37.624Z,100806.47
2023-05-09T13:57:06.961Z,100811.28
2023-05-09T13:59:35.888Z,100808.75
2023-05-09T14:02:05.345Z,100809.47
2023-05-09T14:04:35.156Z,100803.00
2023-05-09T14:07:04.132Z,100797.94
2023-05-09T14:09:32.970Z,100800.78
2023-05-09T14:12:02.732Z,100797.00
2023-05-09T14:14:32.730Z,100793.78
2023-05-09T14:17:02.137Z,100794.31
2023-05-09T14:19:30.975Z,100788.94
2023-05-09T14:22:00.305Z,100791.50
2023-05-09T14:24:29.507Z,100782.00
2023-05-09T14:26:58.804Z,100785.78
2023-05-09T14:29:27.660Z,100778.69
2023-05-09T14:31:56.917Z,100778.34
2023-05-09T14:34:26.177Z,100780.69
2023-05-09T14:36:54.997Z,100773.75
2023-05-09T14:39:24.362Z,100772.31
2023-05-09T14:41:53.664Z,100774.28
2023-05-09T14:44:23.126Z,100773.19
2023-05-09T14:46:52.549Z,100770.13
2023-05-09T14:49:21.859Z,100765.06
2023-05-09T14:51:51.229Z,100757.19
2023-05-09T14:54:20.086Z,100753.97
2023-05-09T14:56:49.025Z,100757.19
2023-05-09T14:59:18.451Z,100748.97
2023-05-09T15:01:47.930Z,100748.81
2023-05-09T15:04:17.318Z,100745.81
2023-05-09T15:06:46.665Z,100741.38
2023-05-09T15:09:15.645Z,100740.91
2023-05-09T15:11:48.140Z,100734.47
2023-05-09T15:14:18.393Z,100734.84
2023-05-09T15:16:47.389Z,100731.31
2023-05-09T15:19:15.406Z,100733.13
2023-05-09T15:21:44.294Z,100726.31
2023-05-09T15:24:13.610Z,100724.91
2023-05-09T15:26:42.689Z,100726.31
2023-05-09T15:29:11.452Z,100723.13
2023-05-09T15:31:40.617Z,100728.09
2023-05-09T15:34:09.871Z,100720.91
2023-05-09T15:36:39.142Z,100718.22
2023-05-09T15:39:08.536Z,100715.53
2023-05-09T15:41:37.831Z,100713.56
2023-05-09T15:44:06.860Z,100717.50
2023-05-09T15:46:35.145Z,100708.00
2023-05-09T15:49:04.550Z,100708.00
2023-05-09T15:51:33.521Z,100718.75
2023-05-09T15:54:02.228Z,100705.91
2023-05-09T15:56:30.378Z,100712.00
2023-05-09T15:58:59.734Z,100712.00
2023-05-09T16:01:29.062Z,100704.66
2023-05-09T16:03:58.418Z,100694.59
2023-05-09T16:06:27.638Z,100694.78
2023-05-09T16:08:56.973Z,100691.25
2023-05-09T16:11:26.375Z,100690.19
2023-05-09T16:13:55.652Z,100684.66
2023-05-09T16:16:24.523Z,100683.06
2023-05-09T16:18:53.856Z,100685.59
2023-05-09T16:21:23.248Z,100676.13
2023-05-09T16:23:52.655Z,100674.53
2023-05-09T16:26:21.918Z,100679.91
2023-05-09T16:28:51.134Z,100675.78
2023-05-09T16:31:20.559Z,100665.06
2023-05-09T16:33:49.894Z,100669.16
2023-05-09T16:36:19.261Z,100667.19
2023-05-09T16:38:48.603Z,100661.25
2023-05-09T16:41:17.895Z,100657.34
2023-05-09T16:43:51.044Z,100656.06
2023-05-09T16:46:20.515Z,100653.22
2023-05-09T16:48:55.865Z,100649.16
2023-05-09T16:51:24.674Z,100655.03
2023-05-09T16:53:53.590Z,100650.94
2023-05-09T16:56:22.752Z,100636.63
2023-05-09T16:58:51.566Z,100640.63
2023-05-09T17:01:20.951Z,100638.47
2023-05-09T17:03:49.816Z,100637.75
2023-05-09T17:06:18.500Z,100633.63
2023-05-09T17:08:47.195Z,100635.59
2023-05-09T17:11:16.589Z,100642.97
2023-05-09T17:13:45.942Z,100632.06
2023-05-09T17:16:14.873Z,100626.53
2023-05-09T17:18:43.762Z,100624.97
2023-05-09T17:21:12.623Z,100627.47
2023-05-09T17:23:41.931Z,100631.97
2023-05-09T17:26:10.942Z,100631.09
2023-05-09T17:28:39.485Z,100629.66
2023-05-09T17:31:08.781Z,100628.06
2023-05-09T17:33:38.145Z,100628.63
2023-05-09T17:36:06.916Z,100630.44
2023-05-09T17:38:35.825Z,100626.19
2023-05-09T17:41:04.594Z,100615.44
2023-05-09T17:43:34.003Z,100620.81
2023-05-09T17:46:02.967Z,100622.19
2023-05-09T17:48:31.872Z,100620.81
2023-05-09T17:51:01.460Z,100626.19
2023-05-09T17:53:30.081Z,100622.06
2023-05-09T17:55:58.691Z,100630.09
2023-05-09T17:58:27.698Z,100621.91
2023-05-09T18:00:56.349Z,100623.16
2023-05-09T18:03:26.025Z,100627.81
2023-05-09T18:05:55.485Z,100624.25
2023-05-09T18:08:24.371Z,100621.56
2023-05-09T18:10:53.591Z,100625.50
2023-05-09T18:13:22.739Z,100621.38
2023-05-09T18:15:51.270Z,100617.28
2023-05-09T18:18:20.657Z,100621.25
2023-05-09T18:20:50.044Z,100614.47
2023-05-09T18:23:19.333Z,100623.00
2023-05-09T18:25:48.759Z,100621.63
2023-05-09T18:28:18.015Z,100621.44
2023-05-09T18:30:46.827Z,100618.03
2023-05-09T18:33:16.127Z,100611.28
2023-05-09T18:35:45.454Z,100619.13
2023-05-09T18:38:14.867Z,100619.84
2023-05-09T18:40:43.753Z,100613.78
2023-05-09T18:43:12.629Z,100616.28
2023-05-09T18:45:42.032Z,100620.97
2023-05-09T18:48:10.962Z,100614.16
2023-05-09T18:50:39.601Z,100608.78
2023-05-09T18:53:08.290Z,100610.59
2023-05-09T18:55:37.120Z,100613.13
2023-05-09T18:58:06.462Z,100622.44
2023-05-09T19:00:35.792Z,100615.63
2023-05-09T19:03:05.144Z,100619.56
2023-05-09T19:05:38.143Z,100619.56
2023-05-09T19:08:07.533Z,100623.50
2023-05-09T19:10:36.091Z,100618.16
2023-05-09T19:13:04.816Z,100626.00
2023-05-09T19:15:34.142Z,100625.28
2023-05-09T19:18:03.437Z,100625.28
2023-05-09T19:20:32.733Z,100623.19
2023-05-09T19:23:01.883Z,100621.75
2023-05-09T19:25:31.128Z,100624.97
2023-05-09T19:28:00.057Z,100626.97
2023-05-09T19:30:29.476Z,100633.56
2023-05-09T19:32:58.450Z,100635.00
2023-05-09T19:35:28.175Z,100638.91
2023-05-09T19:37:57.208Z,100630.88
2023-05-09T19:40:25.434Z,100632.84
2023-05-09T19:42:54.322Z,100628.75
2023-05-09T19:45:23.637Z,100625.34
2023-05-09T19:47:53.015Z,100623.97
2023-05-09T19:50:22.222Z,100638.03
2023-05-09T19:52:50.935Z,100629.31
2023-05-09T19:55:20.313Z,100634.66
2023-05-09T19:57:49.711Z,100629.31
2023-05-09T20:00:18.966Z,100634.66
2023-05-09T20:02:47.158Z,100635.91
2023-05-09T20:05:15.515Z,100633.22
2023-05-09T20:07:44.728Z,100631.81
2023-05-09T20:10:14.297Z,100637.16
2023-05-09T20:12:43.395Z,100634.50
2023-05-09T20:15:12.833Z,100630.38
2023-05-09T20:17:41.714Z,100630.38
2023-05-09T20:20:10.988Z,100629.13
2023-05-09T20:22:40.258Z,100634.34
2023-05-09T20:25:09.118Z,100631.66
2023-05-09T20:27:38.398Z,100633.59
2023-05-09T20:30:07.776Z,100634.34
2023-05-09T20:32:37.144Z,100638.25
2023-05-09T20:35:06.464Z,100639.50
2023-05-09T20:37:35.782Z,100634.34
2023-05-09T20:40:04.755Z,100634.16
2023-05-09T20:42:32.929Z,100636.84
2023-05-09T20:45:02.242Z,100640.22
2023-05-09T20:47:31.621Z,100648.97
2023-05-09T20:50:00.474Z,100645.56
2023-05-09T20:52:29.276Z,100648.25
2023-05-09T20:54:58.530Z,100647.53
2023-05-09T20:57:27.117Z,100642.19
2023-05-09T20:59:55.089Z,100652.91
2023-05-09T21:02:23.049Z,100648.25
2023-05-09T21:04:52.384Z,100652.91
2023-05-09T21:07:21.660Z,100652.19
2023-05-09T21:09:50.669Z,100655.59
2023-05-09T21:12:19.422Z,100656.84
2023-05-09T21:14:48.260Z,100653.44
2023-05-09T21:17:17.194Z,100656.84
2023-05-09T21:19:46.227Z,100656.84
2023-05-09T21:22:14.526Z,100655.44
2023-05-09T21:24:43.841Z,100650.06
2023-05-09T21:27:13.212Z,100656.13
2023-05-09T21:29:42.021Z,100641.31
2023-05-09T21:32:11.367Z,100651.31
2023-05-09T21:34:40.611Z,100653.97
2023-05-09T21:37:09.855Z,100648.63
2023-05-09T21:39:38.629Z,100648.63
2023-05-09T21:42:07.986Z,100642.53
2023-05-09T21:44:37.252Z,100647.91
2023-05-09T21:47:06.606Z,100652.53
2023-05-09T21:49:35.970Z,100640.44
2023-05-09T21:52:05.215Z,100649.84
2023-05-09T21:54:34.589Z,100639.13
2023-05-09T21:57:03.649Z,100636.31
2023-05-09T21:59:31.836Z,100640.44
2023-05-09T22:02:00.635Z,100639.13
2023-05-09T22:04:29.405Z,100639.00
2023-05-09T22:06:58.647Z,100633.63
2023-05-09T22:09:27.904Z,100633.63
2023-05-09T22:11:57.182Z,100639.00
2023-05-09T22:14:26.376Z,100644.34
2023-05-09T22:16:55.168Z,100632.22
2023-05-09T22:19:23.911Z,100628.28
2023-05-09T22:21:53.207Z,100625.41
2023-05-09T22:24:22.438Z,100626.13
2023-05-09T22:26:51.647Z,100627.41
2023-05-09T22:29:20.600Z,100625.41
2023-05-09T22:31:49.297Z,100626.69
2023-05-09T22:34:18.487Z,100620.06
2023-05-09T22:36:47.711Z,100619.38
2023-05-09T22:39:16.661Z,100617.94
2023-05-09T22:41:45.222Z,100622.56
2023-05-09T22:44:14.020Z,100627.94
2023-05-09T22:46:43.152Z,100622.56
2023-05-09T22:49:11.534Z,100631.34
2023-05-09T22:51:40.921Z,100621.16
2023-05-09T22:54:09.776Z,100622.56
2023-05-09T22:56:39.198Z,100615.78
2023-05-09T22:59:08.632Z,100620.44
2023-05-09T23:01:38.164Z,100621.16
2023-05-09T23:04:07.774Z,100619.75
2023-05-09T23:06:36.604Z,100627.06
2023-05-09T23:09:05.906Z,100617.75
2023-05-09T23:11:34.723Z,100625.09
2023-05-09T23:14:04.313Z,100629.03
2023-05-09T23:16:33.693Z,100622.97
2023-05-09T23:19:03.063Z,100626.34
2023-05-09T23:21:31.840Z,100622.22
2023-05-09T23:24:00.879Z,100617.59
2023-05-09T23:26:29.086Z,100614.19
2023-05-09T23:28:58.370Z,100619.56
2023-05-09T23:31:27.821Z,100622.22
2023-05-09T23:33:57.363Z,100626.16
2023-05-09T23:36:26.824Z,100622.22
2023-05-09T23:38:56.163Z,100632.78
2023-05-09T23:41:25.343Z,100620.13
2023-05-09T23:43:54.648Z,100623.50
2023-05-09T23:46:24.077Z,100618.69
2023-05-09T23:48:53.006Z,100619.41
2023-05-09T23:51:22.174Z,100617.25
2023-05-09T23:53:51.576Z,100617.25
2023-05-09T23:56:20.869Z,100618.69
2023-05-09T23:58:50.166Z,100611.19
